Columbia, South Carolina
Current Conditions -  °F | °C
As of 1:53 AM on Monday 24 Nov 2014 (Local Time) from KCUB Reporting Station
Overcast Overcast  
Wind Chill: 68°   Ceiling: 1800
Heat Index: 68°   Visibility: 10mi
Dew Point: 62°   Wind: 13mph
Humidity: 81%   Direction: 240°WSW
Pressure: 29.79"   Gusts: NA
Location:  34°N, 81.04°W
Report Text: KCUB 240653Z AUTO 24011KT 10SM BKN018 OVC024 20/17 A2979 RMK AO2 SLP087 T02000167
Loading
Personal Weather Stations






























Interactive Weather Map New forecast layout! Learn more

10-Day Weather Forecast

Advertisements
Track Severe Weather on mobile